Flight Track Log - Related Links

Times and Time Zones

All times are in EDT time to prevent confusion due to time zone crossing. See the AAL994 flight status page for this flight to view local times or setup timezone preferences in your user account.

Time Position Orientation Groundspeed Altitude Reporting Facility
EDT Latitude Longitude Course Direction KTS MPH feet Rate Location/Type
Fri 08:49:00 AM 12.4587 -86.0418 22° Northeast  Level Estimated
Fri 08:50:00 AM 12.5639 -85.9981 22° Northeast  Level FlightAware Approximate
Fri 08:51:00 AM 12.6690 -85.9545 22° Northeast  Level FlightAware Approximate
Fri 08:52:00 AM 12.7747 -85.9122 21° North  Level Estimated
Fri 08:53:00 AM 12.8800 -85.8687 22° Northeast  Level FlightAware Approximate
Fri 08:54:00 AM 12.9857 -85.8264 18° North  Level Estimated
Fri 08:55:00 AM 13.0923 -85.7864 20° North  Level FlightAware Approximate
Fri 08:56:00 AM 13.1980 -85.7440 23° Northeast  Level Estimated
Fri 08:57:00 AM 13.3037 -85.7016 26° Northeast  Level Estimated
Fri 08:58:00 AM 13.4093 -85.6591 20° North  Level Estimated
Fri 08:59:00 AM 13.5154 -85.6176 21° North  Level FlightAware Approximate
Fri 09:00:00 AM 13.6214 -85.5760 21° North  Level FlightAware Approximate
Fri 09:01:00 AM 13.7271 -85.5334 21° North  Level Estimated
Fri 09:02:00 AM 13.8327 -85.4908 21° North  Level Estimated
Fri 09:03:00 AM 13.9385 -85.4486 21° North  Level FlightAware Approximate
Fri 09:04:00 AM 14.0444 -85.4064 21° North  Level FlightAware Approximate
Fri 09:05:00 AM 14.1502 -85.3641 21° North  Level FlightAware Approximate
Fri 09:06:00 AM 14.2560 -85.3218 21° North  Level FlightAware Approximate
Fri 09:07:00 AM 14.3618 -85.2795 21° North  Level FlightAware Approximate
Fri 09:08:00 AM 14.4676 -85.2371 21° North  Level FlightAware Approximate
Fri 09:09:00 AM 14.5750 -85.1941 21° North  Level FlightAware Approximate
Fri 09:10:00 AM 14.6822 -85.1504 21° North  Level Estimated
Fri 09:11:00 AM 14.7897 -85.1076 21° North  Level FlightAware Approximate
Fri 09:12:00 AM 14.8972 -85.0647 21° North  Level FlightAware Approximate
Fri 09:13:00 AM 15.0047 -85.0219 21° North  Level FlightAware Approximate
Fri 09:14:00 AM 15.1122 -84.9789 21° North  Level FlightAware Approximate
Fri 09:15:00 AM 15.2197 -84.9359 21° North  Level FlightAware Approximate
Fri 09:16:00 AM 15.3272 -84.8929 21° North  Level FlightAware Approximate
Fri 09:17:00 AM 15.4346 -84.8498 21° North  Level FlightAware Approximate
Fri 09:18:00 AM 15.5421 -84.8067 21° North  Level FlightAware Approximate
Fri 09:19:00 AM 15.6496 -84.7636 21° North  Level FlightAware Approximate
Fri 09:20:00 AM 15.7570 -84.7204 21° North  Level FlightAware Approximate
Fri 09:21:00 AM 15.8645 -84.6771 21° North  Level FlightAware Approximate
Fri 09:22:00 AM 15.9719 -84.6338 21° North  Level FlightAware Approximate
Fri 09:23:00 AM 16.0793 -84.5905 21° North  Level FlightAware Approximate
Fri 09:24:00 AM 16.1867 -84.5471 21° North  Level FlightAware Approximate
Fri 09:25:00 AM 16.2941 -84.5036 21° North  Level FlightAware Approximate
Fri 09:26:00 AM 16.4015 -84.4602 21° North  Level FlightAware Approximate
Fri 09:27:00 AM 16.5089 -84.4166 21° North  Level FlightAware Approximate
Fri 09:28:00 AM 16.6163 -84.3731 21° North  Level FlightAware Approximate
Fri 09:29:00 AM 16.7236 -84.3294 21° North  Level FlightAware Approximate
Fri 09:30:00 AM 16.8310 -84.2858 21° North  Level FlightAware Approximate
Fri 09:31:00 AM 16.9384 -84.2420 21° North  Level FlightAware Approximate
Fri 09:32:00 AM 17.0457 -84.1982 21° North  Level FlightAware Approximate
Fri 09:33:00 AM 17.1530 -84.1544 21° North  Level FlightAware Approximate
Fri 09:34:00 AM 17.2603 -84.1105 21° North  Level FlightAware Approximate
Fri 09:35:00 AM 17.3677 -84.0666 21° North  Level FlightAware Approximate
Fri 09:36:00 AM 17.4750 -84.0226 21° North  Level FlightAware Approximate
Fri 09:37:00 AM 17.5823 -83.9786 21° North  Level FlightAware Approximate
Fri 09:38:00 AM 17.6895 -83.9345 21° North  Level FlightAware Approximate
Fri 09:39:00 AM 17.7968 -83.8904 21° North  Level FlightAware Approximate
Fri 09:40:00 AM 17.9041 -83.8462 21° North  Level FlightAware Approximate
Fri 09:41:00 AM 18.0113 -83.8019 21° North  Level FlightAware Approximate
Fri 09:42:00 AM 18.1185 -83.7576 21° North  Level FlightAware Approximate
Fri 09:43:00 AM 18.2258 -83.7133 21° North  Level FlightAware Approximate
Fri 09:44:00 AM 18.3330 -83.6689 21° North  Level FlightAware Approximate
Fri 09:45:00 AM 18.4402 -83.6244 21° North  Level FlightAware Approximate
Fri 09:46:00 AM 18.5474 -83.5799 21° North  Level FlightAware Approximate
Fri 09:47:00 AM 18.6546 -83.5353 22° Northeast  Level FlightAware Approximate
Fri 09:48:00 AM 18.7618 -83.4907 22° Northeast  Level FlightAware Approximate
Fri 09:49:00 AM 18.8689 -83.4460 22° Northeast  Level FlightAware Approximate
Fri 09:50:00 AM 18.9761 -83.4013 22° Northeast  Level FlightAware Approximate
Fri 09:51:00 AM 19.0833 -83.3565 22° Northeast  Level FlightAware Approximate
Fri 09:52:00 AM 19.1904 -83.3116 22° Northeast  Level FlightAware Approximate
Fri 09:53:00 AM 19.2975 -83.2667 22° Northeast  Level FlightAware Approximate
Fri 09:54:00 AM 19.4046 -83.2217 22° Northeast  Level FlightAware Approximate
Fri 09:55:00 AM 19.5112 -83.1751 22° Northeast  Level Estimated
Fri 09:56:00 AM 19.6182 -83.1300 22° Northeast  Level FlightAware Approximate
Fri 09:57:00 AM 19.7253 -83.0847 22° Northeast  Level FlightAware Approximate
Fri 09:58:00 AM 19.8323 -83.0394 22° Northeast  Level FlightAware Approximate
Fri 09:59:00 AM 19.9393 -82.9941 22° Northeast  Level FlightAware Approximate
Fri 10:00:00 AM 20.0457 -82.9471 22° Northeast  Level Estimated
Fri 10:01:00 AM 20.1526 -82.9012 22° Northeast  Level FlightAware Approximate
Fri 10:02:00 AM 20.2595 -82.8553 22° Northeast  Level FlightAware Approximate
Fri 10:03:00 AM 20.3663 -82.8093 22° Northeast  Level FlightAware Approximate
Fri 10:04:00 AM 20.4732 -82.7633 22° Northeast  Level FlightAware Approximate
Fri 10:05:00 AM 20.5800 -82.7172 22° Northeast  Level FlightAware Approximate
Fri 10:06:00 AM 20.6876 -82.6706 22° Northeast  Level FlightAware Approximate
Fri 10:07:00 AM 20.7952 -82.6240 22° Northeast  Level FlightAware Approximate
Fri 10:08:00 AM 20.9028 -82.5774 22° Northeast  Level FlightAware Approximate
Fri 10:09:00 AM 21.0104 -82.5306 22° Northeast  Level FlightAware Approximate
Fri 10:10:00 AM 21.1180 -82.4838 22° Northeast  Level FlightAware Approximate
Fri 10:11:00 AM 21.2256 -82.4370 22° Northeast  Level FlightAware Approximate
Fri 10:12:00 AM 21.3332 -82.3901 22° Northeast  Level FlightAware Approximate
Fri 10:13:00 AM 21.4407 -82.3431 22° Northeast  Level FlightAware Approximate
Fri 10:14:00 AM 21.5482 -82.2960 22° Northeast  Level FlightAware Approximate
Fri 10:15:00 AM 21.6558 -82.2488 22° Northeast  Level FlightAware Approximate
Fri 10:16:00 AM 21.7633 -82.2016 22° Northeast  Level FlightAware Approximate
Fri 10:17:00 AM 21.8708 -82.1544 22° Northeast  Level FlightAware Approximate
Fri 10:18:00 AM 21.9782 -82.1070 22° Northeast  Level FlightAware Approximate
Fri 10:19:00 AM 22.0857 -82.0596 22° Northeast  Level FlightAware Approximate
Fri 10:20:00 AM 22.1931 -82.0121 22° Northeast  Level FlightAware Approximate
Fri 10:21:00 AM 22.3006 -81.9645 22° Northeast  Level FlightAware Approximate
Fri 10:22:00 AM 22.4051 -81.9214 21° North  Level FlightAware Approximate
Fri 10:23:00 AM 22.5082 -81.8746 23° Northeast  Level FlightAware Approximate
Fri 10:24:00 AM 22.6111 -81.8272 23° Northeast  Level FlightAware Approximate
Fri 10:25:00 AM 22.7140 -81.7798 23° Northeast  Level FlightAware Approximate
Fri 10:26:00 AM 22.8169 -81.7323 23° Northeast  Level FlightAware Approximate
Fri 10:26:16 AM 23.3186 -81.3828 21° North 465 535 36,000  Level Miami Center
Fri 10:27:00 AM 22.9198 -81.6847 23° Northeast  Level FlightAware Approximate
Fri 10:27:16 AM 23.4406 -81.3556 12° North 452 520 35,900  Level Miami Center
Fri 10:28:00 AM 23.0226 -81.6371 23° Northeast  Level FlightAware Approximate
Fri 10:28:16 AM 23.5606 -81.3233 14° North 447 514 36,000  Level Miami Center
Fri 10:29:00 AM 23.1263 -81.5915 21° North  Level FlightAware Approximate
Fri 10:29:16 AM 23.6844 -81.2961 11° North 447 514 35,900  Level Miami Center
Fri 10:30:00 AM 23.2305 -81.5473 21° North  Level FlightAware Approximate
Fri 10:30:16 AM 23.8044 -81.2661 13° North 447 514 36,000  Level Miami Center
Fri 10:31:16 AM 23.9264 -81.2319 14° North 447 514 36,000 -50 Level Miami Center
Fri 10:32:16 AM 24.0464 -81.2064 11° North 440 506 35,900 -1,750 Descending Miami Center
Fri 10:33:16 AM 24.1700 -81.1858 North 440 506 32,500 -3,450 Descending Miami Center
Fri 10:34:16 AM 24.2983 -81.1583 11° North 452 520 29,000 -3,050 Descending Miami Center
Fri 10:35:16 AM 24.4286 -81.1331 10° North 463 533 26,400 -2,550 Descending Miami Center
Fri 10:36:16 AM 24.5567 -81.1100 North 468 539 23,900 -2,500 Descending Miami Center
Fri 10:37:16 AM 24.6764 -81.0822 12° North 462 532 21,400 -2,550 Descending Miami Center
Fri 10:38:16 AM 24.7961 -81.0567 11° North 442 509 18,800 -2,400 Descending Miami Center
Fri 10:39:16 AM 24.9097 -81.0353 10° North 426 490 16,600 -2,300 Descending Miami Center
Fri 10:40:16 AM 25.0189 -81.0136 10° North 408 470 14,200 -2,139 Descending Miami Center
Fri 10:40:57 AM 25.0922 -81.0025 North 385 443 13,000 -1,600 Descending Miami Center
Fri 10:41:16 AM 25.1217 -80.9919 18° North 389 448 12,600 -1,200 Descending Miami Center
Fri 10:41:52 AM 25.1889 -80.9828 North 374 430 11,900 -1,100 Descending Miami Center
Fri 10:42:16 AM 25.2225 -80.9747 12° North 377 434 11,500 -984 Descending Miami Center
Fri 10:42:53 AM 25.2897 -80.9608 11° North 366 421 10,900 -900 Descending Miami Center
Fri 10:43:16 AM 25.3233 -80.9550 North 370 426 10,600 -787 Descending Miami Center
Fri 10:43:54 AM 25.3947 -80.9414 10° North 359 413 10,100 -583 Descending Miami Center
Fri 10:44:28 AM 25.4200 -80.9353 12° North 358 412 9,900 -98 Descending Miami Center
Fri 10:44:55 AM 25.4786 -80.9258 North 284 327 10,000  Climbing Miami Center
Fri 10:45:28 AM 25.5250 -80.9136 13° North 323 372 9,900  Descending Miami Center
Fri 10:45:44 AM 25.5461 -80.9097 North 281 323 10,000 -200 Climbing Miami Center
Fri 10:46:28 AM 25.5786 -80.8578 55° Northeast 264 304 9,700 -787 Descending Miami Center
Fri 10:46:45 AM 25.5878 -80.8328 68° East 292 336 9,200 -1,600 Descending Miami Center
Fri 10:47:28 AM 25.6206 -80.7786 56° Northeast 264 304 8,100 -1,475 Descending Miami Center
Fri 10:47:46 AM 25.6294 -80.7558 67° East 287 330 7,700 -1,300 Descending Miami Center
Fri 10:48:28 AM 25.6617 -80.7200 45° Northeast 270 311 6,800 -1,180 Descending Miami Center
Fri 10:48:47 AM 25.6853 -80.7000 37° Northeast 273 314 6,500 -700 Descending Miami Center
Fri 10:49:28 AM 25.7300 -80.6692 32° Northeast 263 303 6,100 -774 Descending Miami Center
Fri 10:49:49 AM 25.7469 -80.6536 40° Northeast 224 258 5,700 -1,500 Descending Miami Center
Fri 10:50:28 AM 25.7750 -80.6222 45° Northeast 245 282 4,600 -1,701 Descending Miami Center
Fri 10:50:56 AM 25.7736 -80.5922 93° East 226 260 3,800 -1,157 Descending Miami Center
Fri 10:51:51 AM 25.7731 -80.5322 91° East 212 244 3,000 -569 Descending Miami Center
Fri 10:52:52 AM 25.7786 -80.4769 84° East 170 196 2,700 -590 Descending Miami Center
Fri 10:53:53 AM 25.7800 -80.4239 88° East 171 197 1,800 -836 Descending Miami Center
Fri 10:54:54 AM 25.7792 -80.3708 91° East 149 171 1,000 -718 Descending Miami Center
Fri 10:55:50 AM 25.7822 -80.3317 85° East 139 160 400 -643 Descending Miami Center

Login

Don't have an account? Register now (free) for customized features, flight alerts, and more!